sensor_id;sensor_type;location;lat;lon;timestamp;temperature;humidity
43414;DHT22;29013;49.676;8.606;2022-09-09T00:02:57;18.1;99.9
43414;DHT22;29013;49.676;8.606;2022-09-09T00:08:19;18.1;99.9
43414;DHT22;29013;49.676;8.606;2022-09-09T00:13:41;18.1;99.9
43414;DHT22;29013;49.676;8.606;2022-09-09T00:19:07;18.1;99.9
43414;DHT22;29013;49.676;8.606;2022-09-09T00:24:35;18.1;99.9
43414;DHT22;29013;49.676;8.606;2022-09-09T00:29:57;18.1;99.9
43414;DHT22;29013;49.676;8.606;2022-09-09T00:35:21;18.1;99.9
43414;DHT22;29013;49.676;8.606;2022-09-09T00:40:48;18.1;99.9
43414;DHT22;29013;49.676;8.606;2022-09-09T00:46:41;18.2;99.9
43414;DHT22;29013;49.676;8.606;2022-09-09T00:52:11;18.3;99.9
43414;DHT22;29013;49.676;8.606;2022-09-09T00:57:35;18.3;99.9
43414;DHT22;29013;49.676;8.606;2022-09-09T01:03:28;18.2;99.9
43414;DHT22;29013;49.676;8.606;2022-09-09T01:09:18;18.3;99.9
43414;DHT22;29013;49.676;8.606;2022-09-09T01:14:44;18.4;99.9
43414;DHT22;29013;49.676;8.606;2022-09-09T01:20:19;18.3;99.9
43414;DHT22;29013;49.676;8.606;2022-09-09T01:26:14;18.3;99.9
43414;DHT22;29013;49.676;8.606;2022-09-09T01:31:41;18.4;99.9
43414;DHT22;29013;49.676;8.606;2022-09-09T01:37:05;18.3;99.9
43414;DHT22;29013;49.676;8.606;2022-09-09T01:42:27;18.2;99.9
43414;DHT22;29013;49.676;8.606;2022-09-09T01:47:55;18.2;99.9
43414;DHT22;29013;49.676;8.606;2022-09-09T01:53:21;18.2;99.9
43414;DHT22;29013;49.676;8.606;2022-09-09T01:58:51;18.1;99.9
43414;DHT22;29013;49.676;8.606;2022-09-09T02:04:21;18.1;99.9
43414;DHT22;29013;49.676;8.606;2022-09-09T02:09:40;18.1;99.9
43414;DHT22;29013;49.676;8.606;2022-09-09T02:15:05;18.0;99.9
43414;DHT22;29013;49.676;8.606;2022-09-09T02:20:30;17.9;99.9
43414;DHT22;29013;49.676;8.606;2022-09-09T02:25:56;17.9;99.9
43414;DHT22;29013;49.676;8.606;2022-09-09T02:31:22;17.9;99.9
43414;DHT22;29013;49.676;8.606;2022-09-09T02:36:47;17.9;99.9
43414;DHT22;29013;49.676;8.606;2022-09-09T02:42:15;17.9;99.9
43414;DHT22;29013;49.676;8.606;2022-09-09T02:47:37;17.8;99.9
43414;DHT22;29013;49.676;8.606;2022-09-09T02:53:07;17.8;99.9
43414;DHT22;29013;49.676;8.606;2022-09-09T02:58:31;17.8;99.9
43414;DHT22;29013;49.676;8.606;2022-09-09T03:03:58;17.7;99.9
43414;DHT22;29013;49.676;8.606;2022-09-09T03:09:26;17.7;99.9
43414;DHT22;29013;49.676;8.606;2022-09-09T03:14:50;17.7;99.9
43414;DHT22;29013;49.676;8.606;2022-09-09T03:20:15;17.6;99.9
43414;DHT22;29013;49.676;8.606;2022-09-09T03:25:37;17.6;99.9
43414;DHT22;29013;49.676;8.606;2022-09-09T03:31:04;17.5;99.9
43414;DHT22;29013;49.676;8.606;2022-09-09T03:36:30;17.5;99.9
43414;DHT22;29013;49.676;8.606;2022-09-09T03:41:57;17.5;99.9
43414;DHT22;29013;49.676;8.606;2022-09-09T03:47:25;17.4;99.9
43414;DHT22;29013;49.676;8.606;2022-09-09T03:52:53;17.4;99.9
43414;DHT22;29013;49.676;8.606;2022-09-09T03:58:19;17.4;99.9
43414;DHT22;29013;49.676;8.606;2022-09-09T04:03:46;17.3;99.9
43414;DHT22;29013;49.676;8.606;2022-09-09T04:09:08;17.3;99.9
43414;DHT22;29013;49.676;8.606;2022-09-09T04:14:34;17.2;99.9
43414;DHT22;29013;49.676;8.606;2022-09-09T04:20:03;17.1;99.9
43414;DHT22;29013;49.676;8.606;2022-09-09T04:25:29;17.2;99.9
43414;DHT22;29013;49.676;8.606;2022-09-09T04:30:50;17.1;99.9
43414;DHT22;29013;49.676;8.606;2022-09-09T04:36:18;17.1;99.9
43414;DHT22;29013;49.676;8.606;2022-09-09T04:41:45;17.0;99.9
43414;DHT22;29013;49.676;8.606;2022-09-09T04:47:11;17.0;99.9
43414;DHT22;29013;49.676;8.606;2022-09-09T04:52:37;17.0;99.9
43414;DHT22;29013;49.676;8.606;2022-09-09T04:58:07;17.0;99.9
43414;DHT22;29013;49.676;8.606;2022-09-09T05:03:33;17.0;99.9
43414;DHT22;29013;49.676;8.606;2022-09-09T05:09:01;17.0;99.9
43414;DHT22;29013;49.676;8.606;2022-09-09T05:14:28;17.0;99.9
43414;DHT22;29013;49.676;8.606;2022-09-09T05:19:55;17.0;99.9
43414;DHT22;29013;49.676;8.606;2022-09-09T05:25:22;16.9;99.9
43414;DHT22;29013;49.676;8.606;2022-09-09T05:30:48;16.9;99.9
43414;DHT22;29013;49.676;8.606;2022-09-09T05:36:13;17.0;99.9
43414;DHT22;29013;49.676;8.606;2022-09-09T05:41:38;17.0;99.9
43414;DHT22;29013;49.676;8.606;2022-09-09T05:47:05;17.1;99.9
43414;DHT22;29013;49.676;8.606;2022-09-09T05:52:27;17.1;99.9
43414;DHT22;29013;49.676;8.606;2022-09-09T05:57:54;17.2;99.9
43414;DHT22;29013;49.676;8.606;2022-09-09T06:03:18;17.2;99.9
43414;DHT22;29013;49.676;8.606;2022-09-09T06:08:45;17.3;99.9
43414;DHT22;29013;49.676;8.606;2022-09-09T06:14:07;17.4;99.9
43414;DHT22;29013;49.676;8.606;2022-09-09T06:19:29;17.4;99.9
43414;DHT22;29013;49.676;8.606;2022-09-09T06:24:55;17.5;99.9
43414;DHT22;29013;49.676;8.606;2022-09-09T06:30:22;17.5;99.9
43414;DHT22;29013;49.676;8.606;2022-09-09T06:35:55;17.6;99.9
43414;DHT22;29013;49.676;8.606;2022-09-09T06:41:22;17.8;99.9
43414;DHT22;29013;49.676;8.606;2022-09-09T06:46:43;18.0;99.9
43414;DHT22;29013;49.676;8.606;2022-09-09T06:52:09;18.1;99.9
43414;DHT22;29013;49.676;8.606;2022-09-09T06:57:36;18.1;99.9
43414;DHT22;29013;49.676;8.606;2022-09-09T07:03:07;18.2;99.9
43414;DHT22;29013;49.676;8.606;2022-09-09T07:08:32;18.3;99.9
43414;DHT22;29013;49.676;8.606;2022-09-09T07:13:58;18.3;99.9
43414;DHT22;29013;49.676;8.606;2022-09-09T07:19:24;18.4;99.9
43414;DHT22;29013;49.676;8.606;2022-09-09T07:24:48;18.6;99.9
43414;DHT22;29013;49.676;8.606;2022-09-09T07:30:12;18.6;99.9
43414;DHT22;29013;49.676;8.606;2022-09-09T07:35:33;18.7;99.9
43414;DHT22;29013;49.676;8.606;2022-09-09T07:40:55;18.8;99.9
43414;DHT22;29013;49.676;8.606;2022-09-09T07:46:17;18.8;99.9
43414;DHT22;29013;49.676;8.606;2022-09-09T07:51:39;18.9;99.9
43414;DHT22;29013;49.676;8.606;2022-09-09T07:57:08;18.8;99.9
43414;DHT22;29013;49.676;8.606;2022-09-09T08:02:30;19.1;99.9
43414;DHT22;29013;49.676;8.606;2022-09-09T08:07:58;19.3;99.9
43414;DHT22;29013;49.676;8.606;2022-09-09T08:13:27;19.4;99.5
43414;DHT22;29013;49.676;8.606;2022-09-09T08:18:55;19.4;99.9
43414;DHT22;29013;49.676;8.606;2022-09-09T08:24:22;19.4;99.2
43414;DHT22;29013;49.676;8.606;2022-09-09T08:29:47;19.6;99.4
43414;DHT22;29013;49.676;8.606;2022-09-09T08:35:31;19.7;99.4
43414;DHT22;29013;49.676;8.606;2022-09-09T08:40:54;19.9;99.4
43414;DHT22;29013;49.676;8.606;2022-09-09T08:46:21;19.9;98.2
43414;DHT22;29013;49.676;8.606;2022-09-09T08:51:45;19.8;98.0
43414;DHT22;29013;49.676;8.606;2022-09-09T09:02:42;20.4;98.5
43414;DHT22;29013;49.676;8.606;2022-09-09T09:08:04;20.6;98.2
43414;DHT22;29013;49.676;8.606;2022-09-09T09:13:26;20.7;97.7
43414;DHT22;29013;49.676;8.606;2022-09-09T09:18:50;20.8;97.6
43414;DHT22;29013;49.676;8.606;2022-09-09T09:24:18;21.1;97.1
43414;DHT22;29013;49.676;8.606;2022-09-09T09:29:43;21.2;96.4
43414;DHT22;29013;49.676;8.606;2022-09-09T09:35:12;21.1;97.9
43414;DHT22;29013;49.676;8.606;2022-09-09T09:40:33;21.0;97.5
43414;DHT22;29013;49.676;8.606;2022-09-09T09:46:00;20.9;97.4
43414;DHT22;29013;49.676;8.606;2022-09-09T09:51:22;20.8;97.2
43414;DHT22;29013;49.676;8.606;2022-09-09T09:56:44;21.5;97.2
43414;DHT22;29013;49.676;8.606;2022-09-09T10:02:23;21.5;94.4
43414;DHT22;29013;49.676;8.606;2022-09-09T10:07:44;21.7;91.0
43414;DHT22;29013;49.676;8.606;2022-09-09T10:13:08;21.5;93.1
43414;DHT22;29013;49.676;8.606;2022-09-09T10:18:47;21.5;94.0
43414;DHT22;29013;49.676;8.606;2022-09-09T10:24:22;21.6;93.6
43414;DHT22;29013;49.676;8.606;2022-09-09T10:30:03;21.8;93.5
43414;DHT22;29013;49.676;8.606;2022-09-09T10:35:32;22.0;92.6
43414;DHT22;29013;49.676;8.606;2022-09-09T10:41:20;22.2;92.9
43414;DHT22;29013;49.676;8.606;2022-09-09T10:46:48;22.6;91.5
43414;DHT22;29013;49.676;8.606;2022-09-09T10:52:14;22.9;90.2
43414;DHT22;29013;49.676;8.606;2022-09-09T10:57:41;22.7;90.5
43414;DHT22;29013;49.676;8.606;2022-09-09T11:03:12;23.0;87.7
43414;DHT22;29013;49.676;8.606;2022-09-09T11:08:38;23.1;88.7
43414;DHT22;29013;49.676;8.606;2022-09-09T11:14:08;23.3;88.4
43414;DHT22;29013;49.676;8.606;2022-09-09T11:19:30;23.4;87.7
43414;DHT22;29013;49.676;8.606;2022-09-09T11:24:57;23.3;90.8
43414;DHT22;29013;49.676;8.606;2022-09-09T11:30:23;23.6;87.6
43414;DHT22;29013;49.676;8.606;2022-09-09T11:41:37;23.4;86.6
43414;DHT22;29013;49.676;8.606;2022-09-09T11:47:02;23.1;86.2
43414;DHT22;29013;49.676;8.606;2022-09-09T11:52:37;22.9;86.2
43414;DHT22;29013;49.676;8.606;2022-09-09T11:57:56;22.6;85.3
43414;DHT22;29013;49.676;8.606;2022-09-09T12:03:33;22.5;86.6
43414;DHT22;29013;49.676;8.606;2022-09-09T12:08:55;22.5;87.0
43414;DHT22;29013;49.676;8.606;2022-09-09T12:14:34;22.2;86.7
43414;DHT22;29013;49.676;8.606;2022-09-09T12:20:01;22.0;88.4
43414;DHT22;29013;49.676;8.606;2022-09-09T12:25:29;21.9;86.9
43414;DHT22;29013;49.676;8.606;2022-09-09T12:30:53;21.7;86.8
43414;DHT22;29013;49.676;8.606;2022-09-09T12:36:17;21.5;86.9
43414;DHT22;29013;49.676;8.606;2022-09-09T12:41:50;21.3;89.8
43414;DHT22;29013;49.676;8.606;2022-09-09T12:47:06;21.2;90.7
43414;DHT22;29013;49.676;8.606;2022-09-09T12:52:31;21.0;90.2
43414;DHT22;29013;49.676;8.606;2022-09-09T12:57:53;21.1;91.3
43414;DHT22;29013;49.676;8.606;2022-09-09T13:03:21;21.3;92.4
43414;DHT22;29013;49.676;8.606;2022-09-09T13:08:43;21.5;91.2
43414;DHT22;29013;49.676;8.606;2022-09-09T13:14:12;21.5;90.7
43414;DHT22;29013;49.676;8.606;2022-09-09T13:19:37;21.2;88.7
43414;DHT22;29013;49.676;8.606;2022-09-09T13:25:06;20.8;91.2
43414;DHT22;29013;49.676;8.606;2022-09-09T13:30:31;20.8;91.8
43414;DHT22;29013;49.676;8.606;2022-09-09T13:35:53;20.6;92.6
43414;DHT22;29013;49.676;8.606;2022-09-09T13:41:20;20.4;93.4
43414;DHT22;29013;49.676;8.606;2022-09-09T13:46:45;19.8;98.2
43414;DHT22;29013;49.676;8.606;2022-09-09T13:52:13;18.9;99.9
43414;DHT22;29013;49.676;8.606;2022-09-09T13:57:39;18.4;99.9
43414;DHT22;29013;49.676;8.606;2022-09-09T14:03:04;18.3;99.9
43414;DHT22;29013;49.676;8.606;2022-09-09T14:08:32;18.4;99.9
43414;DHT22;29013;49.676;8.606;2022-09-09T14:13:59;18.5;99.9
43414;DHT22;29013;49.676;8.606;2022-09-09T14:19:26;18.7;99.9
43414;DHT22;29013;49.676;8.606;2022-09-09T14:24:54;18.8;99.9
43414;DHT22;29013;49.676;8.606;2022-09-09T14:30:19;19.0;99.9
43414;DHT22;29013;49.676;8.606;2022-09-09T14:35:46;19.0;99.9
43414;DHT22;29013;49.676;8.606;2022-09-09T14:41:08;19.0;99.9
43414;DHT22;29013;49.676;8.606;2022-09-09T14:46:35;19.0;99.9
43414;DHT22;29013;49.676;8.606;2022-09-09T14:52:00;19.0;99.9
43414;DHT22;29013;49.676;8.606;2022-09-09T14:57:21;19.0;99.9
43414;DHT22;29013;49.676;8.606;2022-09-09T15:02:44;19.1;99.9
43414;DHT22;29013;49.676;8.606;2022-09-09T15:08:06;19.2;99.9
43414;DHT22;29013;49.676;8.606;2022-09-09T15:13:29;19.2;99.9
43414;DHT22;29013;49.676;8.606;2022-09-09T15:18:52;19.2;99.9
43414;DHT22;29013;49.676;8.606;2022-09-09T15:24:14;19.2;99.9
43414;DHT22;29013;49.676;8.606;2022-09-09T15:29:36;19.1;99.9
43414;DHT22;29013;49.676;8.606;2022-09-09T15:35:04;18.9;99.9
43414;DHT22;29013;49.676;8.606;2022-09-09T15:40:31;18.6;99.9
43414;DHT22;29013;49.676;8.606;2022-09-09T15:45:54;18.4;99.9
43414;DHT22;29013;49.676;8.606;2022-09-09T15:51:15;18.3;99.9
43414;DHT22;29013;49.676;8.606;2022-09-09T15:56:37;18.3;99.9
43414;DHT22;29013;49.676;8.606;2022-09-09T16:01:59;18.4;99.9
43414;DHT22;29013;49.676;8.606;2022-09-09T16:07:25;18.3;99.9
43414;DHT22;29013;49.676;8.606;2022-09-09T16:12:50;18.4;99.9
43414;DHT22;29013;49.676;8.606;2022-09-09T16:18:16;18.3;99.9
43414;DHT22;29013;49.676;8.606;2022-09-09T16:23:38;18.3;99.9
43414;DHT22;29013;49.676;8.606;2022-09-09T16:29:05;18.1;99.9
43414;DHT22;29013;49.676;8.606;2022-09-09T16:34:32;18.0;99.9
43414;DHT22;29013;49.676;8.606;2022-09-09T16:39:59;17.9;99.9
43414;DHT22;29013;49.676;8.606;2022-09-09T16:45:24;17.8;99.9
43414;DHT22;29013;49.676;8.606;2022-09-09T16:50:46;17.8;99.9
43414;DHT22;29013;49.676;8.606;2022-09-09T16:56:13;17.8;99.9
43414;DHT22;29013;49.676;8.606;2022-09-09T17:01:38;17.7;99.9
43414;DHT22;29013;49.676;8.606;2022-09-09T17:07:02;17.7;99.9
43414;DHT22;29013;49.676;8.606;2022-09-09T17:12:30;17.7;99.9
43414;DHT22;29013;49.676;8.606;2022-09-09T17:17:54;17.7;99.9
43414;DHT22;29013;49.676;8.606;2022-09-09T17:23:19;17.6;99.9
43414;DHT22;29013;49.676;8.606;2022-09-09T17:28:44;17.6;99.9
43414;DHT22;29013;49.676;8.606;2022-09-09T17:34:10;17.5;99.9
43414;DHT22;29013;49.676;8.606;2022-09-09T17:39:36;17.5;99.9
43414;DHT22;29013;49.676;8.606;2022-09-09T17:45:03;17.6;99.9
43414;DHT22;29013;49.676;8.606;2022-09-09T17:50:30;17.5;99.9
43414;DHT22;29013;49.676;8.606;2022-09-09T17:55:56;17.3;99.9
43414;DHT22;29013;49.676;8.606;2022-09-09T18:01:20;17.1;99.9
43414;DHT22;29013;49.676;8.606;2022-09-09T18:06:42;17.2;99.9
43414;DHT22;29013;49.676;8.606;2022-09-09T18:12:07;17.1;99.9
43414;DHT22;29013;49.676;8.606;2022-09-09T18:17:33;17.1;99.9
43414;DHT22;29013;49.676;8.606;2022-09-09T18:23:00;16.9;99.9
43414;DHT22;29013;49.676;8.606;2022-09-09T18:28:22;16.9;99.9
43414;DHT22;29013;49.676;8.606;2022-09-09T18:33:51;16.8;99.9
43414;DHT22;29013;49.676;8.606;2022-09-09T18:39:16;16.7;99.9
43414;DHT22;29013;49.676;8.606;2022-09-09T18:44:41;16.6;99.9
43414;DHT22;29013;49.676;8.606;2022-09-09T18:50:10;16.5;99.9
43414;DHT22;29013;49.676;8.606;2022-09-09T18:55:37;16.4;99.9
43414;DHT22;29013;49.676;8.606;2022-09-09T19:01:07;16.4;99.9
43414;DHT22;29013;49.676;8.606;2022-09-09T19:06:29;16.3;99.9
43414;DHT22;29013;49.676;8.606;2022-09-09T19:11:52;16.2;99.9
43414;DHT22;29013;49.676;8.606;2022-09-09T19:17:20;16.2;99.9
43414;DHT22;29013;49.676;8.606;2022-09-09T19:22:45;16.1;99.9
43414;DHT22;29013;49.676;8.606;2022-09-09T19:28:12;16.1;99.9
43414;DHT22;29013;49.676;8.606;2022-09-09T19:33:34;16.1;99.9
43414;DHT22;29013;49.676;8.606;2022-09-09T19:38:59;16.1;99.9
43414;DHT22;29013;49.676;8.606;2022-09-09T19:44:24;16.2;99.9
43414;DHT22;29013;49.676;8.606;2022-09-09T19:49:52;16.2;99.9
43414;DHT22;29013;49.676;8.606;2022-09-09T19:55:14;16.3;99.9
43414;DHT22;29013;49.676;8.606;2022-09-09T20:00:42;16.3;99.9
43414;DHT22;29013;49.676;8.606;2022-09-09T20:06:10;16.3;99.9
43414;DHT22;29013;49.676;8.606;2022-09-09T20:11:32;16.2;99.9
43414;DHT22;29013;49.676;8.606;2022-09-09T20:17:00;16.2;99.9
43414;DHT22;29013;49.676;8.606;2022-09-09T20:22:28;16.1;99.9
43414;DHT22;29013;49.676;8.606;2022-09-09T20:27:55;16.1;99.9
43414;DHT22;29013;49.676;8.606;2022-09-09T20:33:22;16.1;99.9
43414;DHT22;29013;49.676;8.606;2022-09-09T20:38:48;16.1;99.9
43414;DHT22;29013;49.676;8.606;2022-09-09T20:44:12;16.0;99.9
43414;DHT22;29013;49.676;8.606;2022-09-09T20:49:39;16.0;99.9
43414;DHT22;29013;49.676;8.606;2022-09-09T20:55:08;16.0;99.9
43414;DHT22;29013;49.676;8.606;2022-09-09T21:00:35;16.0;99.9
43414;DHT22;29013;49.676;8.606;2022-09-09T21:05:59;15.9;99.9
43414;DHT22;29013;49.676;8.606;2022-09-09T21:11:25;15.8;99.9
43414;DHT22;29013;49.676;8.606;2022-09-09T21:16:52;15.8;99.9
43414;DHT22;29013;49.676;8.606;2022-09-09T21:22:19;15.8;99.9
43414;DHT22;29013;49.676;8.606;2022-09-09T21:27:45;15.9;99.9
43414;DHT22;29013;49.676;8.606;2022-09-09T21:33:11;15.9;99.9
43414;DHT22;29013;49.676;8.606;2022-09-09T21:38:37;15.9;99.9
43414;DHT22;29013;49.676;8.606;2022-09-09T21:44:02;15.9;99.9
43414;DHT22;29013;49.676;8.606;2022-09-09T21:49:27;15.8;99.9
43414;DHT22;29013;49.676;8.606;2022-09-09T21:54:51;15.9;99.9
43414;DHT22;29013;49.676;8.606;2022-09-09T22:00:18;15.9;99.9
43414;DHT22;29013;49.676;8.606;2022-09-09T22:05:44;15.9;99.9
43414;DHT22;29013;49.676;8.606;2022-09-09T22:11:10;15.9;99.9
43414;DHT22;29013;49.676;8.606;2022-09-09T22:16:31;16.0;99.9
43414;DHT22;29013;49.676;8.606;2022-09-09T22:21:58;15.9;99.9
43414;DHT22;29013;49.676;8.606;2022-09-09T22:27:23;16.0;99.9
43414;DHT22;29013;49.676;8.606;2022-09-09T22:32:47;16.0;99.9
43414;DHT22;29013;49.676;8.606;2022-09-09T22:38:10;16.0;99.9
43414;DHT22;29013;49.676;8.606;2022-09-09T22:43:35;16.0;99.9
43414;DHT22;29013;49.676;8.606;2022-09-09T22:49:01;16.0;99.9
43414;DHT22;29013;49.676;8.606;2022-09-09T22:54:29;16.1;99.9
43414;DHT22;29013;49.676;8.606;2022-09-09T22:59:55;16.1;99.9
43414;DHT22;29013;49.676;8.606;2022-09-09T23:05:22;16.1;99.9
43414;DHT22;29013;49.676;8.606;2022-09-09T23:10:50;16.0;99.9
43414;DHT22;29013;49.676;8.606;2022-09-09T23:16:16;16.1;99.9
43414;DHT22;29013;49.676;8.606;2022-09-09T23:21:40;16.1;99.9
43414;DHT22;29013;49.676;8.606;2022-09-09T23:27:07;16.1;99.9
43414;DHT22;29013;49.676;8.606;2022-09-09T23:32:34;16.1;99.9
43414;DHT22;29013;49.676;8.606;2022-09-09T23:38:01;16.1;99.9
43414;DHT22;29013;49.676;8.606;2022-09-09T23:43:26;16.1;99.9
43414;DHT22;29013;49.676;8.606;2022-09-09T23:48:53;16.1;99.9
43414;DHT22;29013;49.676;8.606;2022-09-09T23:54:21;16.0;99.9
43414;DHT22;29013;49.676;8.606;2022-09-09T23:59:47;16.1;99.9
